Time;durP1;ratioP1;P1;durP2;ratioP2;P2;SDS_P1;SDS_P2;PMS_P1;PMS_P2;Temp;Humidity;BMP_temperature;BMP_pressure;BME280_temperature;BME280_humidity;BME280_pressure;Samples;Min_cycle;Max_cycle;Signal;HPM_P1;HPM_P2
2021/12/15 00:00:51;;;;;;;10.90;4.50;;;11.60;99.90;;;;;;5047478;28;20220;-78
2021/12/15 00:03:17;;;;;;;13.20;3.73;;;11.60;99.90;;;;;;5047390;28;20267;-78
2021/12/15 00:05:45;;;;;;;11.80;3.70;;;11.60;99.90;;;;;;5047288;28;20556;-79
2021/12/15 00:08:11;;;;;;;9.63;3.77;;;11.70;99.90;;;;;;5047351;28;20228;-78
2021/12/15 00:10:39;;;;;;;10.27;4.47;;;11.70;99.90;;;;;;5046076;28;20173;-78
2021/12/15 00:13:06;;;;;;;13.03;4.70;;;11.70;99.90;;;;;;5047472;28;20648;-79
2021/12/15 00:15:32;;;;;;;9.33;4.00;;;11.70;99.90;;;;;;5047635;28;20255;-80
2021/12/15 00:17:59;;;;;;;8.27;3.80;;;11.80;99.90;;;;;;5047434;28;20169;-78
2021/12/15 00:20:27;;;;;;;11.77;4.40;;;11.70;99.90;;;;;;5048619;28;20242;-79
2021/12/15 00:22:53;;;;;;;11.33;4.57;;;11.70;99.90;;;;;;5066924;28;20200;-76
2021/12/15 00:25:26;;;;;;;9.73;4.20;;;11.70;99.90;;;;;;5066966;28;20172;-76
2021/12/15 00:27:52;;;;;;;8.10;4.03;;;11.70;99.90;;;;;;5066739;28;20645;-76
2021/12/15 00:30:19;;;;;;;9.73;3.73;;;11.70;99.90;;;;;;5065876;28;20188;-74
2021/12/15 00:32:45;;;;;;;10.57;4.00;;;11.70;99.90;;;;;;5032620;28;20605;-75
2021/12/15 00:35:11;;;;;;;8.50;3.73;;;11.70;99.90;;;;;;5033717;28;20264;-76
2021/12/15 00:37:37;;;;;;;12.47;4.27;;;11.80;99.90;;;;;;5033532;28;20212;-76
2021/12/15 00:40:07;;;;;;;9.30;3.80;;;11.80;99.90;;;;;;5036065;28;21995;-76
2021/12/15 00:42:33;;;;;;;6.13;3.43;;;11.70;99.90;;;;;;5037197;28;20170;-77
2021/12/15 00:44:58;;;;;;;11.33;3.57;;;11.70;99.90;;;;;;5033696;28;20174;-77
2021/12/15 00:47:24;;;;;;;9.67;3.60;;;11.70;99.90;;;;;;5033512;28;20174;-78
2021/12/15 00:49:51;;;;;;;6.07;3.80;;;11.70;99.90;;;;;;5033560;28;20181;-76
2021/12/15 00:52:19;;;;;;;8.80;3.30;;;11.80;99.90;;;;;;5033009;28;20182;-77
2021/12/15 00:54:45;;;;;;;6.63;2.90;;;11.80;99.90;;;;;;5032181;28;20186;-77
2021/12/15 00:57:10;;;;;;;8.37;3.07;;;11.80;99.90;;;;;;5033388;28;20239;-76
2021/12/15 00:59:41;;;;;;;7.00;3.00;;;11.80;99.90;;;;;;5033261;28;20263;-76
2021/12/15 01:02:09;;;;;;;7.17;3.23;;;11.80;99.90;;;;;;5049466;28;20196;-79
2021/12/15 01:04:35;;;;;;;9.10;2.80;;;11.80;99.90;;;;;;5052775;28;20649;-74
2021/12/15 01:07:07;;;;;;;7.17;2.90;;;12.70;99.90;;;;;;5052840;28;20180;-75
2021/12/15 01:09:44;;;;;;;6.97;3.00;;;11.80;99.90;;;;;;5053171;28;20177;-76
2021/12/15 01:12:21;;;;;;;10.33;3.20;;;11.80;99.90;;;;;;5036145;28;20174;-76
2021/12/15 01:20:16;;;;;;;9.57;3.23;;;11.80;99.90;;;;;;5032452;28;20236;-75
2021/12/15 01:22:46;;;;;;;8.90;3.30;;;11.80;99.90;;;;;;5032761;28;20166;-75
2021/12/15 01:25:23;;;;;;;13.93;3.80;;;11.80;99.90;;;;;;5032446;28;20656;-75
2021/12/15 01:27:51;;;;;;;11.90;3.90;;;11.80;99.90;;;;;;5032587;28;20174;-75
2021/12/15 01:30:21;;;;;;;10.80;3.10;;;11.80;99.90;;;;;;5032436;28;20651;-75
2021/12/15 01:32:47;;;;;;;8.43;3.63;;;11.80;99.90;;;;;;5032511;28;20182;-74
2021/12/15 01:36:09;;;;;;;9.93;3.17;;;11.90;99.90;;;;;;5032452;28;20540;-74
2021/12/15 01:38:38;;;;;;;9.90;3.03;;;11.90;99.90;;;;;;5032037;28;20224;-74
2021/12/15 01:41:07;;;;;;;8.63;2.93;;;11.90;99.90;;;;;;5035188;28;20216;-73
2021/12/15 01:49:15;;;;;;;6.07;2.87;;;11.90;99.90;;;;;;5051816;28;20168;-74
2021/12/15 01:51:42;;;;;;;8.13;3.07;;;12.00;99.90;;;;;;5052086;28;20660;-71
2021/12/15 01:54:09;;;;;;;9.13;2.77;;;12.10;99.90;;;;;;5052269;28;20174;-73
2021/12/15 01:56:36;;;;;;;8.90;2.90;;;12.10;99.90;;;;;;5051805;28;20181;-71
2021/12/15 01:59:03;;;;;;;5.43;2.43;;;12.10;99.90;;;;;;5031849;28;20178;-76
2021/12/15 02:01:29;;;;;;;12.53;2.93;;;12.10;99.90;;;;;;5031715;28;20174;-76
2021/12/15 02:03:55;;;;;;;6.70;2.80;;;12.10;99.90;;;;;;5031696;28;20174;-75
2021/12/15 02:06:21;;;;;;;10.63;2.90;;;12.10;99.90;;;;;;5042900;28;20205;-76
2021/12/15 02:08:48;;;;;;;8.67;2.60;;;12.10;99.90;;;;;;5051409;28;20636;-76
2021/12/15 02:11:15;;;;;;;12.13;2.70;;;12.10;99.90;;;;;;5051544;28;20268;-75
2021/12/15 02:13:41;;;;;;;5.20;2.40;;;12.20;99.90;;;;;;5050193;28;20619;-70
2021/12/15 02:16:08;;;;;;;6.13;2.63;;;12.10;99.90;;;;;;5042317;28;20264;-72
2021/12/15 02:18:41;;;;;;;6.90;2.30;;;12.10;99.90;;;;;;5031673;28;20178;-73
2021/12/15 02:21:11;;;;;;;7.43;2.47;;;12.10;99.90;;;;;;5031568;28;20575;-74
2021/12/15 02:23:44;;;;;;;6.53;2.50;;;12.20;99.90;;;;;;5031501;28;20192;-73
2021/12/15 02:26:23;;;;;;;7.67;2.70;;;12.30;99.90;;;;;;5030110;28;20224;-72
2021/12/15 02:28:54;;;;;;;7.90;2.37;;;12.30;99.90;;;;;;5031284;28;20173;-73
2021/12/15 02:32:19;;;;;;;8.13;2.10;;;12.30;99.90;;;;;;5031294;28;20667;-72
2021/12/15 02:34:33;;;;;;;7.70;1.90;;;12.30;99.90;;;;;;5030640;28;20190;-73
2021/12/15 02:37:18;;;;;;;11.60;2.50;;;12.20;99.90;;;;;;5031130;28;20709;-72
2021/12/15 02:40:06;;;;;;;6.57;2.70;;;12.20;99.90;;;;;;5030753;28;20225;-72
2021/12/15 02:42:35;;;;;;;9.30;2.67;;;12.20;99.90;;;;;;5030902;28;20174;-72
2021/12/15 02:45:02;;;;;;;10.30;3.40;;;12.20;99.90;;;;;;5031315;28;20174;-72
2021/12/15 02:47:31;;;;;;;10.93;2.63;;;12.20;99.90;;;;;;5031468;28;20174;-74
2021/12/15 02:49:59;;;;;;;7.03;3.17;;;12.20;99.90;;;;;;5031408;28;20636;-76
2021/12/15 02:52:27;;;;;;;9.27;3.00;;;12.20;99.90;;;;;;5031111;28;20248;-77
2021/12/15 02:54:53;;;;;;;9.27;3.33;;;12.10;99.90;;;;;;5031164;28;20181;-76
2021/12/15 02:57:19;;;;;;;10.20;3.00;;;12.10;99.90;;;;;;5030833;28;20174;-75
2021/12/15 03:00:01;;;;;;;10.47;3.60;;;12.10;99.90;;;;;;5030997;28;20288;-76
2021/12/15 03:05:19;;;;;;;10.03;2.97;;;12.20;99.90;;;;;;5031248;28;20173;-76
2021/12/15 03:08:01;;;;;;;9.87;2.67;;;12.10;99.90;;;;;;5030877;28;20594;-76
2021/12/15 03:15:57;;;;;;;10.93;2.83;;;12.20;99.90;;;;;;5030866;28;20244;-73
2021/12/15 03:18:26;;;;;;;8.40;2.47;;;12.20;99.90;;;;;;5051003;28;20260;-77
2021/12/15 03:21:00;;;;;;;8.67;2.70;;;12.20;99.90;;;;;;5045529;28;20225;-78
2021/12/15 03:23:42;;;;;;;8.73;2.50;;;12.30;99.90;;;;;;5029937;28;20648;-77
2021/12/15 03:26:10;;;;;;;10.20;2.77;;;12.30;99.90;;;;;;5030145;28;20170;-77
2021/12/15 03:37:30;;;;;;;9.20;2.70;;;12.30;99.90;;;;;;5050486;28;20211;-77
2021/12/15 03:40:03;;;;;;;11.27;2.40;;;12.30;99.90;;;;;;5050705;28;20262;-77
2021/12/15 03:42:43;;;;;;;8.27;2.80;;;12.30;99.90;;;;;;5036954;28;20188;-77
2021/12/15 03:45:12;;;;;;;5.37;2.43;;;12.40;99.90;;;;;;5030777;28;20166;-77
2021/12/15 03:47:42;;;;;;;6.73;2.47;;;12.30;99.90;;;;;;5030780;28;20553;-77
2021/12/15 03:50:10;;;;;;;6.03;2.57;;;12.40;99.90;;;;;;5030819;28;20188;-77
2021/12/15 03:52:36;;;;;;;6.70;2.37;;;12.40;99.90;;;;;;5030587;28;20174;-77
2021/12/15 03:55:04;;;;;;;10.17;2.80;;;12.40;99.90;;;;;;5030700;28;20184;-77
2021/12/15 03:57:30;;;;;;;6.17;2.30;;;12.40;99.90;;;;;;5030666;28;20174;-76
2021/12/15 03:59:57;;;;;;;11.67;3.13;;;12.40;99.90;;;;;;5043535;28;20201;-76
2021/12/15 04:02:25;;;;;;;11.13;2.80;;;12.40;99.90;;;;;;5050542;28;20239;-76
2021/12/15 04:04:51;;;;;;;10.67;3.00;;;12.40;99.90;;;;;;5050434;28;20169;-75
2021/12/15 04:07:20;;;;;;;9.60;2.83;;;11.80;99.90;;;;;;5052472;28;20173;-75
2021/12/15 04:09:47;;;;;;;7.83;3.03;;;12.40;99.90;;;;;;5040464;28;20178;-79
2021/12/15 04:12:14;;;;;;;9.20;3.03;;;12.40;99.90;;;;;;5034229;28;20181;-77
2021/12/15 04:14:55;;;;;;;8.07;2.70;;;12.40;99.90;;;;;;5033963;28;20224;-76
2021/12/15 04:17:34;;;;;;;11.23;3.33;;;12.40;99.90;;;;;;5033743;28;20177;-76
2021/12/15 04:20:08;;;;;;;11.40;3.23;;;12.30;99.90;;;;;;5033810;28;20228;-76
2021/12/15 04:22:34;;;;;;;8.80;3.50;;;12.30;99.90;;;;;;5033410;28;20181;-75
2021/12/15 04:25:09;;;;;;;10.17;3.00;;;12.30;99.90;;;;;;5041815;28;20185;-75
2021/12/15 04:27:35;;;;;;;7.70;2.63;;;12.30;99.90;;;;;;5038534;28;20205;-75
2021/12/15 04:30:03;;;;;;;8.70;2.90;;;12.30;99.90;;;;;;5033758;28;20264;-75
2021/12/15 04:32:42;;;;;;;11.27;3.20;;;12.30;99.90;;;;;;5033573;28;20256;-72
2021/12/15 04:35:10;;;;;;;8.93;3.00;;;12.30;99.90;;;;;;5033580;28;20184;-70
2021/12/15 04:37:36;;;;;;;6.43;2.73;;;12.30;99.90;;;;;;5033652;28;20206;-71
2021/12/15 04:40:06;;;;;;;8.37;2.97;;;12.30;99.90;;;;;;5033533;28;20712;-71
2021/12/15 04:42:32;;;;;;;9.10;3.00;;;12.30;99.90;;;;;;5049005;28;20189;-72
2021/12/15 04:44:58;;;;;;;10.50;3.27;;;12.20;99.90;;;;;;5053543;28;20235;-71
2021/12/15 04:47:25;;;;;;;8.20;2.93;;;12.20;99.90;;;;;;5040182;28;20174;-69
2021/12/15 04:49:54;;;;;;;18.50;4.20;;;12.20;99.90;;;;;;5033453;28;20185;-71
2021/12/15 04:52:23;;;;;;;10.70;3.10;;;12.20;99.90;;;;;;5065345;28;20235;-71
2021/12/15 04:54:50;;;;;;;8.93;3.37;;;12.20;99.90;;;;;;5033506;28;20201;-72
2021/12/15 05:00:46;;;;;;;15.30;3.60;;;12.20;99.90;;;;;;5053010;28;20294;-72
2021/12/15 05:03:12;;;;;;;11.33;3.97;;;12.20;99.90;;;;;;5053175;28;20170;-71
2021/12/15 05:05:38;;;;;;;8.80;3.63;;;12.20;99.90;;;;;;5047164;28;20178;-72
2021/12/15 05:08:07;;;;;;;12.53;3.90;;;12.20;99.90;;;;;;5032904;28;20185;-72
2021/12/15 05:10:33;;;;;;;10.67;3.83;;;12.10;99.90;;;;;;5032817;28;20264;-71
2021/12/15 05:12:59;;;;;;;15.10;3.53;;;12.20;99.90;;;;;;5032990;28;20613;-72
2021/12/15 05:15:27;;;;;;;9.27;3.53;;;12.20;99.90;;;;;;5033049;28;20220;-72
2021/12/15 05:17:52;;;;;;;11.57;3.67;;;12.20;99.90;;;;;;5032927;28;20644;-72
2021/12/15 05:20:19;;;;;;;9.73;3.50;;;12.20;99.90;;;;;;5032435;28;20252;-72
2021/12/15 05:22:45;;;;;;;11.87;4.03;;;12.20;99.90;;;;;;5032616;28;20178;-73
2021/12/15 05:25:11;;;;;;;12.20;3.37;;;12.30;99.90;;;;;;5032272;28;20513;-71
2021/12/15 05:27:38;;;;;;;14.77;4.07;;;12.30;99.90;;;;;;5032434;28;20181;-71
2021/12/15 05:30:10;;;;;;;10.80;3.73;;;12.20;99.90;;;;;;5032770;28;20637;-72
2021/12/15 05:32:36;;;;;;;14.23;4.27;;;12.30;99.90;;;;;;5032728;28;20202;-73
2021/12/15 05:35:04;;;;;;;12.30;3.93;;;12.30;99.90;;;;;;5032338;28;20224;-72
2021/12/15 05:37:30;;;;;;;11.60;3.83;;;12.30;99.90;;;;;;5031973;28;20185;-73
2021/12/15 05:39:57;;;;;;;13.63;3.97;;;12.30;99.90;;;;;;5032594;28;20209;-74
2021/12/15 05:42:24;;;;;;;12.87;3.83;;;12.30;99.90;;;;;;5035801;28;20192;-73
2021/12/15 05:44:51;;;;;;;11.37;3.67;;;12.30;99.90;;;;;;5043562;28;20173;-74
2021/12/15 05:47:18;;;;;;;16.50;4.13;;;12.30;99.90;;;;;;5037085;28;20397;-73
2021/12/15 05:49:44;;;;;;;11.17;4.20;;;12.30;99.90;;;;;;5050881;28;20180;-76
2021/12/15 05:52:10;;;;;;;13.50;4.70;;;12.20;99.90;;;;;;5052783;28;20640;-77
2021/12/15 05:54:37;;;;;;;12.20;4.57;;;12.20;99.90;;;;;;5053312;28;20173;-76
2021/12/15 05:57:03;;;;;;;11.13;4.60;;;12.20;99.90;;;;;;5051950;28;20178;-76
2021/12/15 05:59:29;;;;;;;16.47;4.90;;;12.20;99.90;;;;;;5052275;28;20636;-77
2021/12/15 06:01:55;;;;;;;13.87;4.60;;;12.20;99.90;;;;;;5034157;28;20243;-77
2021/12/15 06:04:21;;;;;;;12.13;5.17;;;12.20;99.90;;;;;;5038790;28;20699;-77
2021/12/15 06:06:47;;;;;;;15.60;4.90;;;12.20;99.90;;;;;;5051368;28;20185;-77
2021/12/15 06:09:14;;;;;;;20.20;4.80;;;12.10;99.90;;;;;;5052138;28;20170;-78
2021/12/15 06:11:42;;;;;;;11.30;4.47;;;12.20;99.90;;;;;;5052113;28;20169;-74
2021/12/15 06:14:08;;;;;;;13.47;4.50;;;12.20;99.90;;;;;;5052202;28;20246;-79
2021/12/15 06:16:38;;;;;;;10.27;4.67;;;11.70;99.90;;;;;;5051272;28;20203;-78
2021/12/15 06:19:04;;;;;;;11.47;4.93;;;12.20;99.90;;;;;;5051458;28;20173;-79
2021/12/15 06:21:31;;;;;;;15.37;5.67;;;12.20;99.90;;;;;;5051570;28;20221;-77
2021/12/15 06:23:58;;;;;;;9.97;4.70;;;12.30;99.90;;;;;;5051934;28;20200;-77
2021/12/15 06:26:24;;;;;;;10.20;5.03;;;12.30;99.90;;;;;;5035940;28;20320;-71
2021/12/15 06:28:50;;;;;;;15.73;4.70;;;12.30;99.90;;;;;;5031196;28;20590;-70
2021/12/15 06:31:17;;;;;;;9.63;4.83;;;12.30;99.90;;;;;;5031598;28;20170;-70
2021/12/15 06:33:44;;;;;;;14.63;5.33;;;12.30;99.90;;;;;;5031543;28;20628;-70
2021/12/15 06:36:13;;;;;;;11.73;5.77;;;12.30;99.90;;;;;;5031171;28;20177;-75
2021/12/15 06:38:43;;;;;;;14.10;5.87;;;12.30;99.90;;;;;;5050902;28;20579;-76
2021/12/15 06:41:12;;;;;;;11.53;5.20;;;12.30;99.90;;;;;;5051184;28;20216;-77
2021/12/15 06:43:39;;;;;;;15.87;6.13;;;12.30;99.90;;;;;;5051464;28;20173;-77
2021/12/15 06:57:34;;;;;;;15.07;5.60;;;12.20;99.90;;;;;;5051027;28;20184;-72
2021/12/15 07:00:04;;;;;;;15.30;5.97;;;12.20;99.90;;;;;;5050813;28;20340;-74
2021/12/15 07:02:31;;;;;;;13.33;5.80;;;12.20;99.90;;;;;;5050884;28;20169;-74
2021/12/15 07:04:57;;;;;;;17.83;5.90;;;12.20;99.90;;;;;;5049318;28;20188;-73
2021/12/15 07:07:23;;;;;;;14.10;6.40;;;12.20;99.90;;;;;;5050937;28;20165;-73
2021/12/15 07:09:49;;;;;;;13.57;6.17;;;12.10;99.90;;;;;;5050728;28;20170;-73
2021/12/15 07:12:15;;;;;;;14.57;5.70;;;12.10;99.90;;;;;;5050743;28;20275;-73
2021/12/15 07:14:41;;;;;;;16.97;6.10;;;12.10;99.90;;;;;;5049306;28;20661;-73
2021/12/15 07:17:14;;;;;;;23.50;7.00;;;12.10;99.90;;;;;;5050325;28;20177;-73
2021/12/15 07:22:37;;;;;;;16.93;6.13;;;12.10;99.90;;;;;;5050864;28;20180;-73
2021/12/15 07:25:05;;;;;;;18.37;6.50;;;12.10;99.90;;;;;;5034163;28;20235;-70
2021/12/15 07:27:31;;;;;;;19.93;6.80;;;12.10;99.90;;;;;;5030682;28;20173;-69
2021/12/15 07:29:57;;;;;;;17.50;6.40;;;12.20;99.90;;;;;;5031028;28;20511;-69
2021/12/15 07:32:23;;;;;;;13.97;5.90;;;12.20;99.90;;;;;;5036400;28;20169;-69
2021/12/15 07:34:49;;;;;;;13.07;5.90;;;12.10;99.90;;;;;;5050644;28;20169;-70
2021/12/15 07:37:15;;;;;;;17.90;6.57;;;12.20;99.90;;;;;;5045038;28;20254;-72
2021/12/15 07:39:47;;;;;;;21.50;7.03;;;12.20;99.90;;;;;;5050289;28;20304;-69
2021/12/15 07:42:15;;;;;;;17.50;6.50;;;12.20;99.90;;;;;;5050660;28;20177;-69
2021/12/15 07:44:41;;;;;;;18.80;6.60;;;12.20;99.90;;;;;;5054393;28;20260;-68
2021/12/15 07:47:08;;;;;;;18.07;6.53;;;12.20;99.90;;;;;;5054438;28;20264;-67
2021/12/15 07:49:34;;;;;;;16.47;6.80;;;12.20;99.90;;;;;;5054088;28;20204;-67
2021/12/15 07:52:03;;;;;;;18.47;7.37;;;12.20;99.90;;;;;;5044469;28;20212;-68
2021/12/15 07:54:35;;;;;;;19.70;6.00;;;12.20;99.90;;;;;;5052787;28;20169;-70
2021/12/15 07:57:04;;;;;;;13.77;5.93;;;12.30;99.90;;;;;;5047857;28;20173;-67
2021/12/15 07:59:30;;;;;;;18.87;6.37;;;12.20;99.90;;;;;;5034671;28;20166;-68
2021/12/15 08:01:56;;;;;;;18.40;6.50;;;12.20;99.90;;;;;;5033868;28;20174;-68
2021/12/15 08:04:22;;;;;;;17.40;6.23;;;12.30;99.90;;;;;;5037775;28;20537;-67
2021/12/15 08:06:48;;;;;;;16.00;6.73;;;12.30;99.90;;;;;;5052614;28;20196;-69
2021/12/15 08:09:14;;;;;;;20.03;7.53;;;12.20;99.90;;;;;;5054077;28;20213;-68
2021/12/15 08:11:40;;;;;;;17.13;6.73;;;12.20;99.90;;;;;;5038044;28;20173;-68
2021/12/15 08:14:07;;;;;;;13.37;6.57;;;12.20;99.90;;;;;;5032157;28;20533;-69
2021/12/15 08:16:34;;;;;;;16.97;6.00;;;12.30;99.90;;;;;;5033844;28;20199;-69
2021/12/15 08:19:00;;;;;;;12.70;6.53;;;12.70;99.90;;;;;;5033913;28;20167;-68
2021/12/15 08:21:27;;;;;;;13.17;6.67;;;12.30;99.90;;;;;;5033715;28;20312;-69
2021/12/15 08:23:53;;;;;;;22.17;7.67;;;12.20;99.90;;;;;;5034233;28;20174;-68
2021/12/15 08:26:19;;;;;;;18.67;6.27;;;12.30;99.90;;;;;;5047476;28;20706;-72
2021/12/15 08:28:45;;;;;;;15.13;6.80;;;12.30;99.90;;;;;;5053733;28;20576;-69
2021/12/15 08:31:11;;;;;;;15.40;6.93;;;12.30;99.90;;;;;;5045655;28;20170;-70
2021/12/15 08:33:37;;;;;;;16.83;7.47;;;12.30;99.90;;;;;;5033307;28;20364;-69
2021/12/15 08:36:11;;;;;;;18.00;7.40;;;12.30;99.90;;;;;;5033497;28;20194;-69
2021/12/15 08:38:39;;;;;;;14.47;6.87;;;12.30;99.90;;;;;;5041263;28;20186;-68
2021/12/15 08:41:18;;;;;;;22.77;7.53;;;12.30;99.90;;;;;;5032836;28;20296;-69
2021/12/15 08:43:44;;;;;;;17.33;7.30;;;12.30;99.90;;;;;;5046395;28;20175;-69
2021/12/15 08:46:20;;;;;;;14.17;6.80;;;12.30;99.90;;;;;;5052862;28;20182;-70
2021/12/15 08:48:48;;;;;;;14.27;7.60;;;12.30;99.90;;;;;;5049039;28;20555;-75
2021/12/15 08:51:16;;;;;;;17.87;7.33;;;12.10;99.90;;;;;;5031597;28;20268;-71
2021/12/15 08:53:43;;;;;;;15.00;7.20;;;12.30;99.90;;;;;;5033249;28;20178;-73
2021/12/15 08:56:09;;;;;;;22.53;7.50;;;12.20;99.90;;;;;;5033176;28;20170;-75
2021/12/15 08:58:36;;;;;;;23.23;8.97;;;12.30;99.90;;;;;;5033225;28;20174;-74
2021/12/15 09:01:05;;;;;;;13.63;7.27;;;12.30;99.90;;;;;;5031703;28;20595;-74
2021/12/15 09:04:04;;;;;;;13.33;7.20;;;12.30;99.90;;;;;;5032598;28;20712;-69
2021/12/15 09:06:31;;;;;;;17.53;7.03;;;12.30;99.90;;;;;;5032738;28;20174;-71
2021/12/15 09:08:56;;;;;;;19.70;6.97;;;12.30;99.90;;;;;;5033568;28;20249;-70
2021/12/15 09:11:25;;;;;;;16.00;6.90;;;12.30;99.90;;;;;;5038608;28;20270;-72
2021/12/15 09:13:53;;;;;;;17.10;6.83;;;12.30;99.90;;;;;;5032883;28;20181;-71
2021/12/15 09:16:19;;;;;;;11.57;6.63;;;12.40;99.90;;;;;;5032502;28;20177;-72
2021/12/15 09:18:47;;;;;;;13.17;7.03;;;12.40;99.90;;;;;;5040648;28;20231;-71
2021/12/15 09:21:16;;;;;;;14.33;7.07;;;12.40;99.90;;;;;;5044097;28;20294;-71
2021/12/15 09:23:43;;;;;;;13.50;6.80;;;12.40;99.90;;;;;;5052466;28;20627;-71
2021/12/15 09:26:09;;;;;;;17.33;7.03;;;12.40;99.90;;;;;;5051974;28;20588;-70
2021/12/15 09:28:36;;;;;;;18.23;7.17;;;12.40;99.90;;;;;;5050499;28;20248;-71
2021/12/15 09:31:04;;;;;;;14.57;7.17;;;12.40;99.90;;;;;;5052217;28;20174;-70
2021/12/15 09:33:46;;;;;;;13.60;6.93;;;12.50;99.90;;;;;;5051690;28;20647;-70
2021/12/15 09:36:14;;;;;;;22.20;7.07;;;12.50;99.90;;;;;;5041931;28;20224;-70
2021/12/15 09:38:42;;;;;;;15.50;7.60;;;12.50;99.90;;;;;;5033455;28;20189;-70
2021/12/15 09:41:11;;;;;;;16.90;7.43;;;12.50;99.90;;;;;;5050122;28;20221;-71
2021/12/15 09:43:38;;;;;;;21.10;7.57;;;12.50;99.90;;;;;;5051934;28;20180;-70
2021/12/15 10:02:02;;;;;;;16.10;6.77;;;12.60;99.90;;;;;;5044169;28;20177;-70
2021/12/15 10:06:06;;;;;;;13.97;6.90;;;12.70;99.90;;;;;;5051218;28;20169;-70
2021/12/15 10:19:46;;;;;;;20.53;6.27;;;12.70;99.90;;;;;;5051276;28;20204;-69
2021/12/15 10:22:45;;;;;;;17.30;6.60;;;12.80;99.90;;;;;;5051082;28;20231;-70
2021/12/15 10:25:34;;;;;;;16.57;6.70;;;12.80;99.90;;;;;;5050867;28;20692;-71
2021/12/15 10:28:05;;;;;;;15.80;6.60;;;12.80;99.90;;;;;;5031242;28;20564;-70
2021/12/15 10:30:38;;;;;;;13.50;6.17;;;12.90;99.90;;;;;;5031429;28;20166;-70
2021/12/15 10:33:09;;;;;;;12.90;6.50;;;12.90;99.90;;;;;;5039318;28;20240;-70
2021/12/15 10:35:38;;;;;;;11.97;5.93;;;12.90;99.90;;;;;;5048784;28;20173;-70
2021/12/15 10:38:12;;;;;;;12.47;6.03;;;13.00;99.90;;;;;;5050707;28;20256;-71
2021/12/15 10:40:52;;;;;;;13.27;5.53;;;13.00;99.90;;;;;;5048731;28;20274;-70
2021/12/15 10:43:20;;;;;;;11.47;5.73;;;13.00;99.90;;;;;;5044025;28;20182;-71
2021/12/15 10:45:53;;;;;;;14.87;6.40;;;13.00;99.90;;;;;;5043862;28;20181;-70
2021/12/15 10:48:37;;;;;;;16.90;6.47;;;13.10;99.90;;;;;;5050537;28;20227;-70
2021/12/15 10:51:32;;;;;;;17.57;5.67;;;13.10;99.90;;;;;;5040067;28;20272;-70
2021/12/15 10:54:06;;;;;;;11.87;5.40;;;13.20;99.90;;;;;;5041128;28;20192;-70
2021/12/15 10:56:36;;;;;;;16.50;5.50;;;13.20;99.90;;;;;;5048142;28;20196;-70
2021/12/15 10:59:09;;;;;;;16.53;6.23;;;13.30;99.90;;;;;;5031839;28;20319;-71
2021/12/15 11:01:37;;;;;;;14.93;6.37;;;13.30;99.90;;;;;;5035244;28;20545;-71
2021/12/15 11:04:22;;;;;;;9.93;5.00;;;13.30;99.90;;;;;;5030831;28;20162;-70
2021/12/15 11:07:15;;;;;;;16.57;5.37;;;13.30;99.90;;;;;;5032684;28;20181;-71
2021/12/15 11:09:49;;;;;;;14.00;5.17;;;13.30;99.90;;;;;;5048984;28;20177;-71
2021/12/15 11:12:33;;;;;;;12.53;5.07;;;13.30;99.90;;;;;;5050577;28;20218;-71
2021/12/15 11:15:06;;;;;;;12.57;5.30;;;13.30;99.90;;;;;;5049874;28;20200;-71
2021/12/15 11:17:36;;;;;;;11.10;5.43;;;13.40;99.90;;;;;;5049813;28;20165;-70
2021/12/15 11:20:13;;;;;;;10.45;5.40;;;13.40;99.90;;;;;;5037385;28;20232;-71
2021/12/15 11:22:49;;;;;;;10.40;5.37;;;13.40;99.90;;;;;;5030527;28;20181;-71
2021/12/15 11:25:28;;;;;;;10.30;5.40;;;13.40;99.90;;;;;;5030373;28;20180;-71
2021/12/15 11:27:58;;;;;;;10.77;5.40;;;13.10;99.90;;;;;;5030482;28;20173;-68
2021/12/15 11:30:32;;;;;;;12.67;5.47;;;13.40;99.90;;;;;;5049932;28;20200;-69
2021/12/15 11:33:02;;;;;;;10.88;5.00;;;13.50;99.90;;;;;;5050421;28;20173;-68
2021/12/15 11:35:52;;;;;;;13.70;5.63;;;13.50;99.90;;;;;;5047981;28;20314;-66
2021/12/15 11:38:23;;;;;;;12.07;5.43;;;13.50;99.90;;;;;;5026891;28;20254;-68
2021/12/15 11:40:58;;;;;;;15.67;5.20;;;13.60;99.90;;;;;;5033803;28;20221;-68
2021/12/15 11:43:26;;;;;;;24.27;6.22;;;13.60;99.90;;;;;;5036734;28;20519;-68
2021/12/15 11:45:53;;;;;;;9.80;4.55;;;13.60;99.90;;;;;;5029670;28;20193;-68
2021/12/15 11:48:26;;;;;;;12.85;5.20;;;13.50;99.90;;;;;;5030282;28;20169;-68
2021/12/15 11:50:57;;;;;;;15.20;5.37;;;13.50;99.90;;;;;;5030300;28;20170;-69
2021/12/15 11:53:32;;;;;;;12.27;4.72;;;13.50;99.90;;;;;;5030194;28;20189;-67
2021/12/15 11:56:20;;;;;;;13.70;5.15;;;13.60;99.90;;;;;;5030218;28;20664;-68
2021/12/15 11:58:48;;;;;;;11.17;5.23;;;13.50;99.90;;;;;;5030208;28;20166;-68
2021/12/15 12:01:37;;;;;;;15.60;5.22;;;13.60;99.90;;;;;;5029748;28;20237;-68
2021/12/15 12:04:30;;;;;;;11.38;4.85;;;13.60;99.90;;;;;;5030312;28;20182;-68
2021/12/15 12:07:11;;;;;;;16.20;5.15;;;13.60;99.90;;;;;;5030322;28;20591;-68
2021/12/15 12:09:43;;;;;;;13.73;4.57;;;13.60;99.90;;;;;;5030178;28;20170;-69
2021/12/15 12:12:10;;;;;;;17.02;5.68;;;13.70;99.90;;;;;;5030227;28;20185;-68
2021/12/15 12:14:42;;;;;;;13.68;5.00;;;13.70;99.90;;;;;;5030084;28;20247;-68
2021/12/15 12:17:14;;;;;;;14.27;5.28;;;13.60;99.90;;;;;;5029852;28;20209;-68
2021/12/15 12:19:49;;;;;;;11.77;5.53;;;13.60;99.90;;;;;;5029147;28;20177;-68
2021/12/15 12:22:18;;;;;;;14.30;6.05;;;13.60;99.90;;;;;;5030135;28;20190;-68
2021/12/15 12:24:47;;;;;;;12.77;5.57;;;13.60;99.90;;;;;;5048983;28;20196;-68
2021/12/15 12:27:14;;;;;;;12.40;5.90;;;13.50;99.90;;;;;;5050470;28;20227;-68
2021/12/15 12:30:20;;;;;;;14.27;5.17;;;13.60;99.90;;;;;;5052943;28;20166;-67
2021/12/15 12:32:46;;;;;;;15.53;5.57;;;13.50;99.90;;;;;;5045632;28;20225;-67
2021/12/15 12:35:16;;;;;;;11.20;5.27;;;13.50;99.90;;;;;;5053343;28;20660;-69
2021/12/15 12:37:43;;;;;;;17.27;5.30;;;13.50;99.90;;;;;;5040784;28;20260;-68
2021/12/15 12:40:22;;;;;;;14.03;5.80;;;13.50;99.90;;;;;;5070507;28;20247;-68
2021/12/15 12:42:49;;;;;;;18.43;6.60;;;12.80;99.90;;;;;;5071159;28;20161;-68
2021/12/15 12:45:19;;;;;;;11.97;5.63;;;13.50;99.90;;;;;;5032796;28;20637;-68
2021/12/15 12:48:25;;;;;;;13.13;5.87;;;13.50;99.90;;;;;;5032593;28;20170;-67
2021/12/15 13:01:11;;;;;;;12.40;5.20;;;13.50;99.90;;;;;;5045293;28;20205;-65
2021/12/15 13:03:44;;;;;;;17.30;5.43;;;13.50;99.90;;;;;;5036219;28;20285;-64
2021/12/15 13:06:23;;;;;;;14.27;5.63;;;13.60;99.90;;;;;;5052877;28;20647;-66
2021/12/15 13:09:02;;;;;;;17.13;5.20;;;13.60;99.90;;;;;;5052822;28;20255;-68
2021/12/15 13:11:34;;;;;;;18.40;5.80;;;13.60;99.90;;;;;;5042407;28;20251;-69
2021/12/15 13:14:10;;;;;;;19.50;5.57;;;13.60;99.90;;;;;;5032534;28;20679;-66
2021/12/15 13:16:54;;;;;;;12.97;5.00;;;13.50;99.90;;;;;;5032812;28;20570;-70
2021/12/15 13:19:41;;;;;;;21.37;6.00;;;13.50;99.90;;;;;;5031927;28;20181;-67
2021/12/15 13:30:49;;;;;;;15.37;5.50;;;13.40;99.90;;;;;;5045111;28;20236;-67
2021/12/15 13:33:42;;;;;;;17.13;6.03;;;13.40;99.90;;;;;;5049821;28;20565;-67
2021/12/15 13:36:21;;;;;;;13.37;5.53;;;13.40;99.90;;;;;;5050022;28;20173;-68
2021/12/15 13:38:56;;;;;;;14.90;5.70;;;13.40;99.90;;;;;;5051716;28;20213;-67
2021/12/15 13:41:31;;;;;;;12.50;5.43;;;13.40;99.90;;;;;;5052097;28;20204;-68
2021/12/15 13:44:24;;;;;;;15.33;5.67;;;13.40;99.90;;;;;;5051889;28;20176;-66
2021/12/15 13:47:01;;;;;;;14.17;4.87;;;13.40;99.90;;;;;;5050770;28;20652;-66
2021/12/15 13:49:38;;;;;;;21.15;5.53;;;13.40;99.90;;;;;;5037204;28;20181;-65
2021/12/15 13:52:28;;;;;;;18.00;5.53;;;13.40;99.90;;;;;;5032325;28;20260;-67
2021/12/15 13:55:15;;;;;;;15.20;4.70;;;13.30;99.90;;;;;;5045180;28;20295;-71
2021/12/15 13:57:47;;;;;;;11.87;4.80;;;13.30;99.90;;;;;;5051761;28;20169;-69
2021/12/15 14:00:20;;;;;;;12.17;5.20;;;13.30;99.90;;;;;;5051982;28;20196;-69
2021/12/15 14:02:58;;;;;;;10.23;4.63;;;13.20;99.90;;;;;;5051712;28;20177;-69
2021/12/15 14:05:33;;;;;;;11.23;4.87;;;13.10;99.90;;;;;;5050676;28;20185;-68
2021/12/15 14:07:58;;;;;;;12.80;4.83;;;13.10;99.90;;;;;;5042165;28;20234;-68
2021/12/15 14:10:24;;;;;;;13.43;4.63;;;13.00;99.90;;;;;;5050480;28;20185;-68
2021/12/15 14:12:56;;;;;;;10.87;4.37;;;12.90;99.90;;;;;;5051506;28;20644;-68
2021/12/15 14:15:25;;;;;;;11.30;4.03;;;12.80;99.90;;;;;;5051350;28;20264;-69
2021/12/15 14:18:12;;;;;;;15.03;4.80;;;12.80;99.90;;;;;;5039181;28;20180;-68
2021/12/15 14:20:47;;;;;;;12.77;4.53;;;12.70;99.90;;;;;;5049649;28;20224;-69
2021/12/15 14:23:19;;;;;;;14.60;5.10;;;12.70;99.90;;;;;;5041656;28;20181;-69
2021/12/15 14:25:47;;;;;;;14.83;5.10;;;12.70;99.90;;;;;;5031359;28;20655;-69
2021/12/15 14:28:15;;;;;;;21.73;5.07;;;12.70;99.90;;;;;;5031089;28;20209;-69
2021/12/15 14:30:43;;;;;;;15.63;5.03;;;12.70;99.90;;;;;;5031265;28;20260;-69